Time;durP1;ratioP1;P1;durP2;ratioP2;P2;SDS_P1;SDS_P2;PMS_P1;PMS_P2;Temp;Humidity;BMP_temperature;BMP_pressure;BME280_temperature;BME280_humidity;BME280_pressure;Samples;Min_cycle;Max_cycle;Signal;HPM_P1;HPM_P2
2021/09/15 00:02:22;;;;;;;10.10;8.57;;;17.10;99.90;;;18.71;62.90;94178.81;5010934;28;20243;-71
2021/09/15 00:04:47;;;;;;;10.57;9.37;;;18.00;99.90;;;18.65;63.27;94172.00;4974973;28;20223;-71
2021/09/15 00:07:15;;;;;;;10.50;8.60;;;17.60;99.90;;;18.65;63.35;94180.84;4975600;28;20227;-71
2021/09/15 00:09:44;;;;;;;9.97;8.97;;;17.20;99.90;;;18.69;63.40;94181.03;4996293;28;20216;-71
2021/09/15 00:12:13;;;;;;;10.17;8.80;;;17.70;99.90;;;18.68;63.24;94177.53;4975085;28;20270;-71
2021/09/15 00:14:39;;;;;;;10.43;8.80;;;17.80;99.90;;;18.62;63.33;94162.66;4980481;28;20286;-71
2021/09/15 00:17:07;;;;;;;9.60;8.47;;;17.50;99.90;;;18.54;63.80;94155.34;5007893;28;20306;-71
2021/09/15 00:19:33;;;;;;;9.03;8.00;;;17.70;99.90;;;18.51;63.61;94171.28;4995635;28;20318;-71
2021/09/15 00:22:01;;;;;;;9.97;8.37;;;18.10;99.90;;;18.57;63.75;94167.38;4991658;28;20313;-74
2021/09/15 00:24:27;;;;;;;9.70;8.80;;;17.40;99.90;;;18.46;63.62;94166.81;4980692;28;20682;-74
2021/09/15 00:26:53;;;;;;;9.53;8.03;;;17.60;99.90;;;18.33;63.64;94165.75;4978047;28;20232;-74
2021/09/15 00:29:21;;;;;;;9.63;8.67;;;17.30;99.90;;;18.30;63.71;94173.63;4960326;28;20302;-74
2021/09/15 00:31:49;;;;;;;9.00;8.20;;;17.40;99.90;;;18.29;63.94;94175.53;4992115;28;20219;-74
2021/09/15 00:34:18;;;;;;;9.77;8.87;;;17.20;99.90;;;18.23;64.17;94165.25;5012918;28;20218;-75
2021/09/15 00:36:43;;;;;;;10.47;8.70;;;17.80;99.90;;;18.26;63.98;94162.75;4990005;28;20215;-75
2021/09/15 00:39:09;;;;;;;9.57;8.57;;;17.60;99.90;;;18.19;63.99;94156.22;5009734;28;20576;-74
2021/09/15 00:41:35;;;;;;;10.50;8.33;;;17.80;99.90;;;18.18;63.92;94166.16;4991728;28;20218;-74
2021/09/15 00:44:07;;;;;;;8.73;7.93;;;17.30;99.90;;;18.22;64.47;94172.50;5008210;28;20274;-74
2021/09/15 00:46:35;;;;;;;8.50;7.70;;;17.30;99.90;;;18.17;64.35;94159.19;4994373;28;20223;-74
2021/09/15 00:49:01;;;;;;;8.50;7.70;;;17.30;99.90;;;18.20;64.48;94161.25;5012080;28;20324;-74
2021/09/15 00:51:28;;;;;;;9.33;7.80;;;17.30;99.90;;;18.21;64.54;94167.41;4979023;28;20219;-74
2021/09/15 00:53:54;;;;;;;8.17;7.37;;;17.60;99.90;;;18.20;64.56;94155.09;4976683;28;20216;-74
2021/09/15 00:56:20;;;;;;;10.50;8.90;;;17.30;99.90;;;18.16;64.62;94160.31;5012754;28;20213;-74
2021/09/15 00:58:46;;;;;;;9.43;8.00;;;17.70;99.90;;;18.17;64.53;94158.38;4975617;28;20687;-74
2021/09/15 01:01:12;;;;;;;8.60;7.80;;;17.70;99.90;;;18.20;64.57;94155.88;4992372;28;20231;-74
2021/09/15 01:03:38;;;;;;;9.17;7.93;;;17.30;99.90;;;18.16;64.66;94146.88;4991811;28;20231;-74
2021/09/15 01:06:06;;;;;;;8.97;8.07;;;17.20;99.90;;;18.12;64.74;94153.94;4978905;28;20223;-74
2021/09/15 01:08:33;;;;;;;10.30;8.00;;;17.40;99.90;;;18.08;65.09;94139.56;4992805;28;20227;-74
2021/09/15 01:11:01;;;;;;;9.07;8.17;;;17.10;99.90;;;18.15;64.86;94139.94;4996255;28;20231;-74
2021/09/15 01:13:30;;;;;;;8.80;7.90;;;17.10;99.90;;;18.20;65.10;94147.84;4989043;28;20310;-74
2021/09/15 01:15:58;;;;;;;8.60;7.90;;;17.20;99.90;;;18.24;65.38;94135.41;4979083;28;20265;-74
2021/09/15 01:18:25;;;;;;;9.00;8.10;;;17.10;99.90;;;18.29;65.00;94132.59;5007487;28;20266;-73
2021/09/15 01:20:55;;;;;;;9.03;8.13;;;17.20;99.90;;;18.34;65.10;94127.09;4989969;28;20294;-75
2021/09/15 01:23:21;;;;;;;8.30;7.20;;;17.30;99.90;;;18.40;65.33;94106.28;4989228;28;20279;-75
2021/09/15 01:25:47;;;;;;;11.87;7.90;;;17.40;99.90;;;18.44;65.46;94113.44;4959225;28;20313;-74
2021/09/15 01:28:16;;;;;;;10.37;8.13;;;17.70;99.90;;;18.46;65.44;94110.44;4994022;28;20574;-74
2021/09/15 01:30:42;;;;;;;11.17;6.97;;;17.40;99.90;;;18.44;65.43;94099.19;4975118;28;20336;-73
2021/09/15 01:33:13;;;;;;;8.33;7.50;;;17.50;99.90;;;18.47;65.85;94103.19;4988691;28;20540;-73
2021/09/15 01:35:41;;;;;;;9.83;7.93;;;17.20;99.90;;;18.45;65.59;94092.75;4977370;28;21002;-74
2021/09/15 01:38:13;;;;;;;8.40;7.40;;;17.50;99.90;;;18.39;65.64;94105.53;4973251;28;20222;-74
2021/09/15 01:40:39;;;;;;;8.60;7.57;;;17.30;99.90;;;18.40;65.46;94092.88;4976113;28;20239;-74
2021/09/15 01:43:10;;;;;;;8.07;7.37;;;17.40;99.90;;;18.29;65.48;94091.56;4994372;28;20228;-74
2021/09/15 01:45:37;;;;;;;9.60;7.50;;;;;;;18.34;65.41;94094.09;5008983;28;20216;-74
2021/09/15 01:48:04;;;;;;;8.40;7.60;;;;;;;18.27;65.86;94089.16;4977411;28;20753;-73
2021/09/15 01:50:32;;;;;;;10.73;7.83;;;17.70;99.90;;;18.29;66.04;94096.94;5003938;28;20583;-74
2021/09/15 01:53:00;;;;;;;8.17;7.37;;;17.70;99.90;;;18.40;65.94;94096.34;4978548;28;20224;-74
2021/09/15 01:55:29;;;;;;;8.67;7.83;;;17.40;99.90;;;18.44;66.06;94099.19;5009480;28;20643;-74
2021/09/15 01:57:55;;;;;;;9.90;8.00;;;17.50;99.90;;;18.41;65.91;94092.56;4994925;28;20212;-70
2021/09/15 02:00:21;;;;;;;9.33;8.27;;;17.50;99.90;;;18.37;66.32;94102.31;4990251;28;20219;-73
2021/09/15 02:02:51;;;;;;;10.40;8.03;;;17.40;99.90;;;18.28;66.17;94098.81;4963511;28;20309;-74
2021/09/15 02:05:20;;;;;;;11.70;8.50;;;17.40;99.90;;;18.21;66.16;94093.09;4977342;28;20219;-75
2021/09/15 02:07:48;;;;;;;8.90;8.10;;;17.30;99.90;;;18.21;66.28;94098.44;4978248;28;20228;-75
2021/09/15 02:10:14;;;;;;;8.80;7.90;;;17.20;99.90;;;18.24;66.23;94100.53;5006530;28;20230;-71
2021/09/15 02:12:40;;;;;;;10.37;8.77;;;17.30;99.90;;;18.25;66.39;94094.06;4977319;28;20210;-70
2021/09/15 02:15:15;;;;;;;8.87;8.10;;;17.40;99.90;;;18.23;66.64;94098.16;5004314;28;20228;-71
2021/09/15 02:17:43;;;;;;;9.30;8.40;;;16.90;99.90;;;18.17;66.39;94097.47;4984155;28;20226;-71
2021/09/15 02:20:10;;;;;;;8.53;7.83;;;17.20;99.90;;;18.15;66.68;94088.97;4989539;28;20243;-71
2021/09/15 02:22:36;;;;;;;9.10;8.13;;;17.20;99.90;;;18.18;66.48;94093.69;4994995;28;20218;-71
2021/09/15 02:25:08;;;;;;;9.77;8.77;;;17.50;99.90;;;18.16;66.49;94090.53;4991136;28;20224;-71
2021/09/15 02:27:35;;;;;;;9.77;8.77;;;17.10;99.90;;;18.19;66.77;94081.88;4992966;28;20229;-71
2021/09/15 02:30:03;;;;;;;9.87;8.57;;;17.30;99.90;;;18.19;66.63;94076.50;4988825;28;20215;-71
2021/09/15 02:32:29;;;;;;;10.50;8.80;;;17.20;99.90;;;18.09;66.84;94071.41;4991361;28;20226;-74
2021/09/15 02:34:55;;;;;;;10.23;9.03;;;17.20;99.90;;;18.08;66.88;94074.38;4962315;28;20286;-75
2021/09/15 02:37:23;;;;;;;9.50;8.63;;;17.20;99.90;;;18.12;67.14;94086.09;4974572;28;20248;-74
2021/09/15 02:39:49;;;;;;;9.03;8.23;;;17.30;99.90;;;18.10;66.92;94090.97;5010475;28;20228;-75
2021/09/15 02:42:15;;;;;;;9.50;8.23;;;17.20;99.90;;;18.12;67.37;94084.19;4991145;28;20581;-75
2021/09/15 02:44:41;;;;;;;9.20;8.30;;;16.90;99.90;;;18.20;67.11;94078.06;4979916;28;20228;-75
2021/09/15 02:47:07;;;;;;;8.80;8.00;;;17.20;99.90;;;18.17;67.43;94075.22;4975727;28;20600;-74
2021/09/15 02:49:32;;;;;;;9.33;8.50;;;17.30;99.90;;;18.14;67.27;94078.50;4990078;28;20217;-74
2021/09/15 02:51:58;;;;;;;9.23;8.23;;;17.30;99.90;;;18.09;67.47;94066.03;4991232;28;20604;-74
2021/09/15 02:54:24;;;;;;;8.90;8.00;;;16.60;99.90;;;18.06;67.32;94061.28;4958001;28;20865;-73
2021/09/15 02:56:50;;;;;;;9.93;8.33;;;17.60;99.90;;;17.96;67.35;94064.22;4992887;28;20222;-74
2021/09/15 02:59:15;;;;;;;9.80;9.00;;;17.00;99.90;;;18.02;67.25;94064.88;4975904;28;20221;-74
2021/09/15 03:01:44;;;;;;;9.00;8.20;;;17.20;99.90;;;18.00;67.31;94056.38;4988076;28;20547;-74
2021/09/15 03:04:09;;;;;;;8.80;8.00;;;17.10;99.90;;;18.02;67.68;94063.00;4971936;28;20331;-74
2021/09/15 03:06:35;;;;;;;8.87;7.90;;;17.10;99.90;;;18.01;67.43;94053.34;4989817;28;20306;-74
2021/09/15 03:09:01;;;;;;;9.47;8.43;;;17.20;99.90;;;18.09;67.74;94058.00;5010576;28;20272;-74
2021/09/15 03:11:29;;;;;;;8.83;8.03;;;17.20;99.90;;;18.13;67.85;94066.22;5004327;28;20247;-74
2021/09/15 03:13:54;;;;;;;9.43;8.60;;;17.20;99.90;;;18.10;67.73;94070.28;4990839;28;20303;-74
2021/09/15 03:16:23;;;;;;;9.33;8.43;;;17.10;99.90;;;18.12;67.87;94081.53;4987465;28;20783;-74
2021/09/15 03:18:51;;;;;;;9.13;8.23;;;17.30;99.90;;;18.13;67.84;94091.13;5009216;28;20310;-74
2021/09/15 03:21:17;;;;;;;8.67;7.80;;;16.40;99.90;;;18.09;68.02;94081.34;4974163;28;20235;-74
2021/09/15 03:23:43;;;;;;;13.17;8.90;;;17.50;99.90;;;18.10;67.99;94078.34;4992198;28;20259;-75
2021/09/15 03:26:14;;;;;;;9.37;8.47;;;17.50;99.90;;;18.07;68.13;94081.63;4975319;28;20235;-74
2021/09/15 03:28:42;;;;;;;10.23;8.43;;;17.10;99.90;;;18.00;68.16;94094.69;4992483;28;20230;-74
2021/09/15 03:31:12;;;;;;;9.07;8.03;;;18.10;99.90;;;18.06;68.27;94100.72;4989717;28;20261;-73
2021/09/15 03:33:40;;;;;;;9.60;8.57;;;17.20;99.90;;;18.09;68.21;94113.53;5008070;28;20277;-74
2021/09/15 03:36:08;;;;;;;9.60;8.37;;;16.90;99.90;;;18.15;68.40;94112.31;4990472;28;20224;-74
2021/09/15 03:38:36;;;;;;;11.70;8.77;;;17.10;99.90;;;18.16;68.38;94095.13;4973890;28;20601;-74
2021/09/15 03:41:03;;;;;;;9.70;8.73;;;17.30;99.90;;;18.15;68.11;94080.91;4990961;28;20282;-74
2021/09/15 03:43:33;;;;;;;10.67;9.67;;;17.10;99.90;;;18.12;68.45;94046.66;4989434;28;20617;-74
2021/09/15 03:46:02;;;;;;;11.47;10.23;;;17.40;99.90;;;18.11;68.49;94046.94;4977857;28;20310;-74
2021/09/15 03:48:28;;;;;;;10.17;9.17;;;17.10;99.90;;;18.15;68.75;94053.28;4988054;28;20232;-73
2021/09/15 03:50:56;;;;;;;12.07;9.67;;;17.20;99.90;;;18.19;69.04;94043.53;4977283;28;20600;-71
2021/09/15 03:53:22;;;;;;;11.13;9.97;;;17.20;99.90;;;18.21;68.87;94042.09;4971259;28;20234;-71
2021/09/15 03:55:50;;;;;;;11.60;10.60;;;17.50;99.90;;;18.16;68.79;94039.56;4988358;28;20223;-71
2021/09/15 03:58:16;;;;;;;11.07;10.10;;;17.50;99.90;;;18.16;69.12;94034.22;4988630;28;20228;-72
2021/09/15 04:00:42;;;;;;;11.30;10.03;;;17.30;99.90;;;18.25;69.15;94037.72;4989796;28;20308;-72
2021/09/15 04:03:10;;;;;;;11.83;10.47;;;17.20;99.90;;;18.22;69.09;94041.03;5002711;28;20233;-71
2021/09/15 04:05:42;;;;;;;12.17;10.33;;;17.20;99.90;;;18.24;69.08;94048.75;4971634;28;20231;-71
2021/09/15 04:08:08;;;;;;;11.60;10.53;;;17.00;99.90;;;18.13;69.38;94042.06;4989448;28;20679;-71
2021/09/15 04:10:36;;;;;;;11.73;10.63;;;17.30;99.90;;;18.17;69.25;94046.50;4989750;28;20243;-70
2021/09/15 04:13:04;;;;;;;10.97;9.97;;;17.20;99.90;;;18.20;69.28;94045.88;5005671;28;20306;-70
2021/09/15 04:15:30;;;;;;;11.17;10.07;;;17.20;99.90;;;18.28;69.33;94045.16;4990190;28;20256;-71
2021/09/15 04:17:56;;;;;;;11.60;10.60;;;17.30;99.90;;;18.33;69.35;94050.38;5008558;28;20254;-71
2021/09/15 04:20:25;;;;;;;15.47;10.23;;;17.50;99.90;;;18.38;69.17;94052.94;5006907;28;20695;-70
2021/09/15 04:22:54;;;;;;;13.10;11.63;;;17.20;99.90;;;18.28;69.50;94039.78;4990510;28;20224;-71
2021/09/15 04:33:35;;;;;;;13.00;11.80;;;17.20;99.90;;;18.13;69.68;94040.16;5007076;28;20241;-71
2021/09/15 04:36:01;;;;;;;15.57;13.97;;;17.40;99.90;;;18.17;69.96;94038.44;4985576;28;20214;-71
2021/09/15 04:38:29;;;;;;;17.97;16.17;;;17.30;99.90;;;18.20;70.06;94043.19;4977947;28;20232;-72
2021/09/15 04:40:57;;;;;;;17.27;15.47;;;17.10;99.90;;;18.27;69.77;94043.56;5006571;28;20267;-72
2021/09/15 04:43:25;;;;;;;13.63;12.30;;;17.50;99.90;;;18.25;69.93;94043.09;5011200;28;20220;-70
2021/09/15 04:45:51;;;;;;;13.57;12.27;;;17.20;99.90;;;18.33;69.90;94039.63;5009837;28;20577;-71
2021/09/15 04:48:17;;;;;;;13.03;11.83;;;17.30;99.90;;;18.28;70.09;94038.97;4993833;28;20282;-72
2021/09/15 04:50:43;;;;;;;14.63;12.03;;;17.30;99.90;;;18.30;69.98;94037.56;5011702;28;20239;-72
2021/09/15 04:53:14;;;;;;;12.90;11.63;;;17.30;99.90;;;18.35;70.25;94053.56;5009023;28;20242;-71
2021/09/15 04:55:40;;;;;;;13.03;11.63;;;17.10;99.90;;;18.37;70.06;94062.06;5009587;28;20211;-71
2021/09/15 04:58:06;;;;;;;12.20;10.90;;;17.70;99.90;;;18.30;70.37;94052.88;4995778;28;20216;-71
2021/09/15 05:00:34;;;;;;;12.27;11.07;;;17.30;99.90;;;18.10;70.15;94038.09;4993419;28;20214;-72
2021/09/15 05:03:07;;;;;;;12.20;10.93;;;16.80;99.90;;;17.96;70.10;94050.03;4994566;28;20227;-73
2021/09/15 05:05:33;;;;;;;13.00;11.60;;;17.00;99.90;;;17.98;70.43;94059.34;5012031;28;20661;-72
2021/09/15 05:08:01;;;;;;;11.93;10.87;;;17.30;99.90;;;18.00;70.34;94059.03;5008082;28;20228;-73
2021/09/15 05:10:27;;;;;;;11.70;10.60;;;16.50;99.90;;;17.95;70.61;94059.94;4981873;28;20253;-72
2021/09/15 05:12:55;;;;;;;11.37;10.33;;;17.50;99.90;;;18.05;70.46;94077.69;5006954;28;20679;-73
2021/09/15 05:15:22;;;;;;;11.67;10.57;;;16.70;99.90;;;18.08;70.49;94059.09;4977721;28;20698;-72
2021/09/15 05:17:51;;;;;;;12.00;10.50;;;17.20;99.90;;;18.04;70.87;94066.16;4993073;28;20298;-73
2021/09/15 05:20:18;;;;;;;12.70;11.20;;;17.00;99.90;;;18.10;70.17;94072.19;4994507;28;20215;-73
2021/09/15 05:22:53;;;;;;;11.63;10.43;;;16.60;99.90;;;18.17;70.87;94075.22;4973871;28;20250;-73
2021/09/15 05:25:23;;;;;;;12.03;10.73;;;17.30;99.90;;;18.15;70.75;94074.75;4997070;28;20710;-73
2021/09/15 05:27:52;;;;;;;11.63;10.40;;;17.00;99.90;;;18.15;70.74;94066.69;4979455;28;20249;-73
2021/09/15 05:30:23;;;;;;;11.43;10.33;;;17.50;99.90;;;18.12;70.70;94070.00;4990272;28;20296;-73
2021/09/15 05:32:49;;;;;;;11.83;10.73;;;17.10;99.90;;;18.12;70.76;94078.03;4977525;28;20214;-73
2021/09/15 05:35:17;;;;;;;12.33;11.03;;;17.10;99.90;;;18.13;70.89;94085.00;5007051;28;20213;-73
2021/09/15 05:37:45;;;;;;;11.33;10.43;;;17.40;99.90;;;18.21;70.95;94076.19;5005328;28;20789;-73
2021/09/15 05:40:13;;;;;;;11.43;10.43;;;16.80;99.90;;;18.26;70.88;94090.28;5009433;28;20638;-72
2021/09/15 05:42:39;;;;;;;12.40;11.20;;;17.20;99.90;;;18.25;71.02;94071.81;4989980;28;20224;-72
2021/09/15 05:45:09;;;;;;;12.73;11.17;;;17.50;99.90;;;18.24;71.14;94087.09;4988862;28;20227;-72
2021/09/15 05:47:35;;;;;;;11.43;10.33;;;17.10;99.90;;;18.21;71.30;94082.34;5002198;28;20221;-73
2021/09/15 05:50:02;;;;;;;12.30;10.43;;;17.30;99.90;;;18.18;71.58;94084.84;4993794;28;20718;-73
2021/09/15 05:52:28;;;;;;;11.90;10.80;;;17.20;99.90;;;18.20;71.12;94088.00;4978656;28;20202;-72
2021/09/15 05:54:58;;;;;;;12.03;10.83;;;17.20;99.90;;;18.32;71.39;94086.38;4975894;28;20233;-73
2021/09/15 05:57:24;;;;;;;12.00;10.63;;;17.30;99.90;;;18.42;71.33;94080.75;4978770;28;20222;-73
2021/09/15 05:59:53;;;;;;;11.47;10.37;;;17.60;99.90;;;18.47;71.25;94089.78;4988784;28;20229;-73
2021/09/15 06:02:19;;;;;;;11.70;10.50;;;17.50;99.90;;;18.45;71.41;94088.19;5008938;28;20211;-72
2021/09/15 06:04:45;;;;;;;11.97;10.77;;;17.50;99.90;;;18.49;71.36;94100.97;4993786;28;20311;-73
2021/09/15 06:07:10;;;;;;;11.00;10.00;;;17.70;99.90;;;18.54;71.21;94119.66;4978374;28;20252;-72
2021/09/15 06:09:39;;;;;;;12.97;10.90;;;17.50;99.90;;;18.57;71.47;94141.31;4975178;28;20220;-73
2021/09/15 06:12:07;;;;;;;13.00;11.33;;;17.60;99.90;;;18.64;71.71;94154.28;4993984;28;20207;-72
2021/09/15 06:14:33;;;;;;;13.83;12.37;;;16.90;99.90;;;18.69;71.35;94156.84;4990138;28;20215;-72
2021/09/15 06:16:59;;;;;;;14.17;12.73;;;17.60;99.90;;;18.77;71.36;94172.19;5012828;28;20237;-72
2021/09/15 06:19:24;;;;;;;16.97;14.10;;;17.70;99.90;;;18.77;71.69;94170.31;4988556;28;20218;-73
2021/09/15 06:21:50;;;;;;;16.23;14.40;;;17.70;99.90;;;18.87;71.50;94188.06;4994735;28;20219;-73
2021/09/15 06:24:18;;;;;;;16.73;14.87;;;17.70;99.90;;;18.88;71.65;94163.59;4977051;28;20235;-72
2021/09/15 06:26:44;;;;;;;16.23;14.47;;;17.80;99.90;;;18.99;71.77;94168.69;5012031;28;20550;-74
2021/09/15 06:29:10;;;;;;;17.73;16.03;;;17.60;99.90;;;19.08;71.58;94164.94;5006021;28;20227;-75
2021/09/15 06:31:36;;;;;;;18.13;16.17;;;17.90;99.90;;;19.23;71.80;94166.41;4959325;28;20221;-76
2021/09/15 06:34:05;;;;;;;19.47;17.27;;;18.40;99.90;;;19.43;71.83;94163.97;5003300;28;20239;-75
2021/09/15 06:36:41;;;;;;;20.27;18.30;;;18.20;99.90;;;19.64;72.00;94168.75;4978043;28;20228;-75
2021/09/15 06:39:11;;;;;;;19.27;17.30;;;18.60;99.90;;;19.76;71.88;94160.84;4994450;28;20207;-75
2021/09/15 06:41:37;;;;;;;19.80;17.80;;;18.80;99.90;;;19.86;71.99;94147.91;4976077;28;20219;-75
2021/09/15 06:44:06;;;;;;;19.83;17.70;;;19.00;99.90;;;19.94;72.00;94149.00;4977425;28;20219;-75
2021/09/15 06:46:34;;;;;;;18.33;16.57;;;19.20;99.90;;;19.99;71.99;94140.78;4985245;28;20215;-74
2021/09/15 06:49:03;;;;;;;19.13;17.13;;;19.40;99.90;;;20.11;71.85;94149.00;4986680;28;20255;-75
2021/09/15 06:51:31;;;;;;;20.10;18.40;;;19.10;99.90;;;20.15;71.75;94122.22;5006586;28;20732;-76
2021/09/15 06:53:57;;;;;;;19.90;17.97;;;;;;;20.14;72.07;94139.50;4988234;28;20302;-76
2021/09/15 06:56:25;;;;;;;19.87;17.90;;;19.30;99.90;;;19.99;72.07;94124.63;4987447;28;20235;-76
2021/09/15 06:58:51;;;;;;;21.40;19.37;;;19.60;99.90;;;20.11;71.96;94130.16;4978447;28;20223;-75
2021/09/15 07:01:17;;;;;;;21.67;19.47;;;;;;;20.07;72.04;94128.44;4974114;28;20228;-75
2021/09/15 07:03:43;;;;;;;22.30;20.13;;;18.80;99.90;;;19.92;71.96;94122.41;4992009;28;20699;-72
2021/09/15 07:06:11;;;;;;;23.20;20.87;;;19.00;99.90;;;19.98;72.07;94126.53;4986493;28;20219;-72
2021/09/15 07:08:37;;;;;;;24.70;21.23;;;19.10;99.90;;;19.99;72.08;94119.25;4975128;28;20225;-72
2021/09/15 07:11:05;;;;;;;23.30;21.10;;;19.10;99.90;;;20.04;72.06;94126.38;4991089;28;20654;-73
2021/09/15 07:13:31;;;;;;;23.03;20.83;;;19.10;99.90;;;20.05;71.76;94133.31;4979131;28;20688;-74
2021/09/15 07:15:57;;;;;;;21.83;19.63;;;19.10;99.90;;;19.98;72.07;94129.22;4960879;28;20212;-72
2021/09/15 07:18:28;;;;;;;22.77;20.63;;;19.20;99.90;;;20.06;72.03;94134.91;4995542;28;20221;-73
2021/09/15 07:20:55;;;;;;;23.97;21.07;;;19.20;99.90;;;20.10;72.42;94130.47;4995505;28;20211;-72
2021/09/15 07:23:21;;;;;;;22.87;20.43;;;19.40;99.90;;;20.20;72.25;94133.66;4991724;28;20756;-73
2021/09/15 07:25:47;;;;;;;22.57;20.17;;;19.30;99.90;;;20.18;72.16;94121.63;4989763;28;20275;-72
2021/09/15 07:28:13;;;;;;;23.70;21.50;;;19.30;99.90;;;20.11;72.15;94130.16;4973304;28;20220;-72
2021/09/15 07:30:38;;;;;;;23.57;21.40;;;19.40;99.90;;;20.04;72.09;94121.78;4982380;28;20311;-73
2021/09/15 07:33:04;;;;;;;24.70;22.23;;;19.20;99.90;;;20.01;72.28;94127.00;4992123;28;20221;-72
2021/09/15 07:35:32;;;;;;;24.27;21.73;;;18.90;99.90;;;20.08;72.09;94135.41;4992258;28;20318;-72
2021/09/15 07:38:00;;;;;;;24.40;21.90;;;19.00;99.90;;;20.22;72.18;94122.53;4990547;28;20238;-71
2021/09/15 07:40:26;;;;;;;24.17;21.67;;;18.70;99.90;;;20.27;72.20;94133.97;4976201;28;20661;-73
2021/09/15 07:42:52;;;;;;;24.57;20.57;;;19.90;99.90;;;20.12;72.35;94129.03;5006731;28;20239;-72
2021/09/15 07:45:20;;;;;;;21.57;19.53;;;19.20;99.90;;;20.08;72.21;94138.84;4994412;28;20813;-73
2021/09/15 07:47:48;;;;;;;22.63;20.30;;;19.80;99.90;;;20.23;72.28;94138.38;5003365;28;20616;-72
2021/09/15 07:50:15;;;;;;;21.47;19.20;;;19.40;99.90;;;20.41;72.37;94152.66;5008683;28;20213;-73
2021/09/15 07:52:42;;;;;;;21.67;19.57;;;19.50;99.90;;;20.52;72.30;94142.31;4990059;28;20230;-73
2021/09/15 07:55:09;;;;;;;18.73;16.77;;;20.20;99.90;;;20.67;72.32;94142.63;4994648;28;20224;-72
2021/09/15 07:57:40;;;;;;;19.83;18.03;;;19.70;99.90;;;20.79;72.34;94150.00;4976743;28;20213;-72
2021/09/15 08:00:10;;;;;;;20.27;18.23;;;19.90;99.90;;;21.02;72.24;94135.19;4993847;28;20693;-71
2021/09/15 08:02:36;;;;;;;19.23;17.60;;;20.20;99.90;;;20.97;72.14;94130.00;4988716;28;20824;-72
2021/09/15 08:05:03;;;;;;;19.03;17.13;;;20.00;99.90;;;21.04;72.36;94145.66;4992436;28;20222;-72
2021/09/15 08:07:29;;;;;;;19.33;17.53;;;;;;;21.14;72.38;94146.13;4986776;28;20228;-73
2021/09/15 08:09:55;;;;;;;17.27;15.67;;;20.40;99.90;;;21.02;72.16;94135.19;4973418;28;20740;-73
2021/09/15 08:12:20;;;;;;;18.30;16.60;;;20.30;99.90;;;21.01;72.31;94133.63;4973522;28;20218;-74
2021/09/15 08:14:46;;;;;;;18.23;16.53;;;20.00;99.90;;;20.91;72.28;94152.84;5011404;28;20279;-74
2021/09/15 08:17:12;;;;;;;17.50;15.90;;;20.60;99.90;;;21.03;72.14;94155.66;4979904;28;20934;-72
2021/09/15 08:19:38;;;;;;;18.40;16.80;;;20.10;99.90;;;20.98;72.20;94175.47;4978540;28;20229;-72
2021/09/15 08:22:04;;;;;;;18.00;16.40;;;20.10;99.90;;;21.17;72.15;94167.03;5009517;28;20657;-74
2021/09/15 08:24:30;;;;;;;18.63;16.80;;;20.80;99.90;;;21.26;72.26;94165.09;4995378;28;20660;-73
2021/09/15 08:26:56;;;;;;;18.90;17.00;;;20.40;99.90;;;21.33;72.20;94162.69;5012309;28;20220;-73
2021/09/15 08:29:22;;;;;;;18.60;17.00;;;20.50;99.90;;;21.24;72.29;94183.50;4995105;28;20680;-72
2021/09/15 08:31:47;;;;;;;19.23;17.43;;;20.40;99.90;;;21.23;72.13;94163.03;5010566;28;20307;-73
2021/09/15 08:34:14;;;;;;;20.30;18.40;;;20.50;99.90;;;21.21;72.05;94172.56;4976211;28;20337;-74
2021/09/15 08:36:42;;;;;;;19.97;18.10;;;20.30;99.90;;;21.27;72.04;94176.66;4964551;28;20217;-74
2021/09/15 08:39:08;;;;;;;19.80;17.70;;;20.20;99.90;;;21.18;72.13;94170.53;4981490;28;20279;-74
2021/09/15 08:41:34;;;;;;;17.80;15.93;;;;;;;21.44;72.28;94211.66;4973412;28;20228;-74
2021/09/15 08:44:00;;;;;;;17.87;16.17;;;;;;;21.64;72.28;94210.13;4961009;28;20296;-75
2021/09/15 08:46:32;;;;;;;17.77;16.03;;;21.10;99.90;;;21.70;72.43;94219.59;4967021;28;20710;-75
2021/09/15 08:49:01;;;;;;;18.20;16.50;;;21.00;99.90;;;21.76;72.17;94229.88;4976696;28;20685;-73
2021/09/15 08:51:32;;;;;;;18.70;16.67;;;20.90;99.90;;;22.16;71.99;94238.41;4984660;28;20221;-74
2021/09/15 08:54:02;;;;;;;17.97;16.30;;;21.20;99.90;;;22.33;71.87;94202.38;4971861;28;20295;-73
2021/09/15 08:56:28;;;;;;;18.00;16.30;;;21.40;99.90;;;22.55;72.01;94229.06;4975151;28;20240;-73
2021/09/15 08:58:54;;;;;;;17.10;15.43;;;22.00;99.90;;;23.02;71.88;94220.69;4973761;28;20261;-73
2021/09/15 09:01:28;;;;;;;15.10;13.60;;;22.80;99.90;;;23.61;71.81;94248.22;4952577;28;20572;-72
2021/09/15 09:03:59;;;;;;;12.60;11.40;;;22.50;99.90;;;24.15;71.34;94263.13;4975369;28;20237;-72
2021/09/15 09:06:33;;;;;;;13.77;11.63;;;23.20;99.90;;;24.36;71.64;94255.66;4991140;28;20312;-73
2021/09/15 09:09:03;;;;;;;13.23;11.93;;;23.90;99.90;;;24.21;71.36;94250.16;4988566;28;20231;-73
2021/09/15 09:11:33;;;;;;;13.13;11.83;;;23.60;99.90;;;24.18;71.39;94246.19;4973950;28;20220;-73
2021/09/15 09:14:06;;;;;;;13.47;11.30;;;24.40;99.90;;;24.28;71.23;94243.00;4977832;28;20259;-72
2021/09/15 09:16:51;;;;;;;12.10;10.80;;;24.60;99.90;;;24.72;70.82;94283.78;4975768;28;20252;-73
2021/09/15 09:19:26;;;;;;;11.90;10.73;;;24.00;99.90;;;25.05;70.66;94253.78;4977921;28;20239;-73
2021/09/15 09:21:53;;;;;;;11.73;10.73;;;25.30;99.90;;;25.25;70.79;94253.53;4977122;28;20695;-72
2021/09/15 09:24:22;;;;;;;11.30;10.30;;;24.60;99.90;;;25.59;70.41;94256.75;4977794;28;20221;-72
2021/09/15 09:26:58;;;;;;;11.53;10.40;;;25.00;99.90;;;26.08;70.29;94276.19;4976122;28;20227;-73
2021/09/15 09:29:37;;;;;;;12.33;10.47;;;25.40;99.90;;;26.83;70.09;94260.44;5012099;28;20225;-73
2021/09/15 09:32:15;;;;;;;12.00;10.47;;;26.20;99.90;;;27.44;69.44;94246.88;4989642;28;20252;-72
2021/09/15 09:34:50;;;;;;;11.20;10.20;;;26.90;99.90;;;27.45;69.26;94205.66;4980365;28;20269;-73
2021/09/15 09:37:23;;;;;;;10.77;9.87;;;27.30;99.90;;;27.26;68.92;94226.69;4951898;28;20290;-72
2021/09/15 09:39:55;;;;;;;11.47;10.30;;;27.00;99.90;;;27.55;68.79;94225.28;4950126;28;20230;-72
2021/09/15 09:42:23;;;;;;;11.07;10.07;;;27.00;99.90;;;26.91;68.76;94202.31;4980587;28;20230;-72
2021/09/15 09:45:11;;;;;;;10.90;10.00;;;26.70;99.90;;;26.50;68.54;94206.50;4976555;28;20276;-72
2021/09/15 09:47:42;;;;;;;11.43;10.43;;;26.20;99.90;;;26.08;68.30;94171.00;4966421;28;20246;-72
2021/09/15 09:50:12;;;;;;;12.30;11.00;;;26.10;99.90;;;25.49;68.33;94152.16;4951502;28;20231;-76
2021/09/15 09:52:54;;;;;;;11.83;10.63;;;25.50;99.90;;;25.35;68.10;94200.69;4973824;28;20265;-76
2021/09/15 09:55:25;;;;;;;11.47;10.33;;;25.10;99.90;;;25.75;67.84;94235.84;4971679;28;20573;-75
2021/09/15 09:57:54;;;;;;;11.10;9.97;;;25.20;99.90;;;26.71;67.75;94206.94;4972922;28;20312;-75
2021/09/15 10:00:22;;;;;;;10.83;9.03;;;26.00;99.90;;;26.84;67.18;94183.91;4952645;28;20324;-75
2021/09/15 10:02:52;;;;;;;9.53;8.60;;;26.30;99.90;;;27.06;67.21;94190.56;4956153;28;20217;-76
2021/09/15 10:05:21;;;;;;;8.27;7.50;;;26.70;99.90;;;26.90;67.20;94144.38;4965814;28;20251;-76
2021/09/15 10:07:47;;;;;;;8.17;6.90;;;26.70;99.90;;;27.10;66.96;94166.88;4977256;28;20222;-75
2021/09/15 10:10:18;;;;;;;6.47;5.80;;;26.80;99.90;;;27.52;66.80;94194.91;4990368;28;20225;-76
2021/09/15 10:12:50;;;;;;;5.43;4.93;;;27.20;99.90;;;28.35;66.61;94171.25;4992460;28;20218;-76
2021/09/15 10:15:20;;;;;;;8.10;6.20;;;28.00;99.90;;;29.03;65.78;94156.47;4996253;28;20212;-75
2021/09/15 10:17:53;;;;;;;7.67;6.90;;;28.60;99.90;;;28.70;65.57;94121.03;4976299;28;20221;-76
2021/09/15 10:20:35;;;;;;;6.90;5.90;;;28.60;99.90;;;28.99;65.22;94153.72;5009861;28;20227;-76
2021/09/15 10:23:01;;;;;;;6.20;4.77;;;29.40;99.90;;;28.96;65.47;94064.38;4974672;28;20213;-75
2021/09/15 10:25:41;;;;;;;8.37;5.50;;;28.50;99.90;;;28.44;65.08;94106.28;4979162;28;20230;-75